sensor_id;sensor_type;location;lat;lon;timestamp;pressure;altitude;pressure_sealevel;temperature;humidity
17607;BME280;69222;52.242;20.980;2023-07-08T00:02:17;100896.09;;;20.65;42.63
17607;BME280;69222;52.242;20.980;2023-07-08T00:04:45;100899.44;;;20.69;43.19
17607;BME280;69222;52.242;20.980;2023-07-08T00:07:16;100898.59;;;20.68;42.61
17607;BME280;69222;52.242;20.980;2023-07-08T00:09:47;100896.78;;;20.70;43.10
17607;BME280;69222;52.242;20.980;2023-07-08T00:12:17;100900.31;;;20.69;43.19
17607;BME280;69222;52.242;20.980;2023-07-08T00:14:45;100904.63;;;20.70;43.46
17607;BME280;69222;52.242;20.980;2023-07-08T00:17:14;100899.41;;;20.70;43.32
17607;BME280;69222;52.242;20.980;2023-07-08T00:19:42;100903.06;;;20.66;42.71
17607;BME280;69222;52.242;20.980;2023-07-08T00:22:12;100893.63;;;20.62;43.15
17607;BME280;69222;52.242;20.980;2023-07-08T00:24:41;100897.22;;;20.60;43.13
17607;BME280;69222;52.242;20.980;2023-07-08T00:27:11;100901.72;;;20.56;43.01
17607;BME280;69222;52.242;20.980;2023-07-08T00:29:41;100904.44;;;20.53;43.17
17607;BME280;69222;52.242;20.980;2023-07-08T00:32:12;100902.91;;;20.47;43.32
17607;BME280;69222;52.242;20.980;2023-07-08T00:34:41;100905.66;;;20.43;43.74
17607;BME280;69222;52.242;20.980;2023-07-08T00:37:11;100906.69;;;20.39;43.78
17607;BME280;69222;52.242;20.980;2023-07-08T00:39:40;100914.81;;;20.33;44.17
17607;BME280;69222;52.242;20.980;2023-07-08T00:42:18;100913.91;;;20.34;44.15
17607;BME280;69222;52.242;20.980;2023-07-08T00:44:48;100918.22;;;20.35;44.39
17607;BME280;69222;52.242;20.980;2023-07-08T00:47:16;100916.50;;;20.34;44.59
17607;BME280;69222;52.242;20.980;2023-07-08T00:49:47;100919.91;;;20.36;45.20
17607;BME280;69222;52.242;20.980;2023-07-08T00:52:23;100909.31;;;20.39;45.01
17607;BME280;69222;52.242;20.980;2023-07-08T00:54:52;100913.63;;;20.40;44.62
17607;BME280;69222;52.242;20.980;2023-07-08T00:57:23;100918.94;;;20.38;45.23
17607;BME280;69222;52.242;20.980;2023-07-08T00:59:58;100916.41;;;20.37;44.94
17607;BME280;69222;52.242;20.980;2023-07-08T01:02:27;100919.06;;;20.35;44.98
17607;BME280;69222;52.242;20.980;2023-07-08T01:05:04;100918.31;;;20.32;45.54
17607;BME280;69222;52.242;20.980;2023-07-08T01:07:33;100917.47;;;20.31;45.52
17607;BME280;69222;52.242;20.980;2023-07-08T01:10:02;100914.06;;;20.29;45.89
17607;BME280;69222;52.242;20.980;2023-07-08T01:12:33;100915.88;;;20.27;45.87
17607;BME280;69222;52.242;20.980;2023-07-08T01:15:07;100920.44;;;20.22;46.12
17607;BME280;69222;52.242;20.980;2023-07-08T01:17:36;100921.47;;;20.18;45.88
17607;BME280;69222;52.242;20.980;2023-07-08T01:20:06;100910.38;;;20.11;46.21
17607;BME280;69222;52.242;20.980;2023-07-08T01:22:41;100909.75;;;20.05;46.51
17607;BME280;69222;52.242;20.980;2023-07-08T01:25:11;100896.97;;;19.97;46.34
17607;BME280;69222;52.242;20.980;2023-07-08T01:27:43;100908.34;;;19.96;46.57
17607;BME280;69222;52.242;20.980;2023-07-08T01:30:14;100910.34;;;19.88;47.14
17607;BME280;69222;52.242;20.980;2023-07-08T01:32:47;100908.88;;;19.81;47.13
17607;BME280;69222;52.242;20.980;2023-07-08T01:35:17;100911.72;;;19.74;47.21
17607;BME280;69222;52.242;20.980;2023-07-08T01:37:50;100911.72;;;19.74;47.35
17607;BME280;69222;52.242;20.980;2023-07-08T01:40:26;100911.94;;;19.68;47.61
17607;BME280;69222;52.242;20.980;2023-07-08T01:42:54;100913.88;;;19.63;48.01
17607;BME280;69222;52.242;20.980;2023-07-08T01:45:25;100913.03;;;19.61;47.99
17607;BME280;69222;52.242;20.980;2023-07-08T01:47:58;100913.09;;;19.60;48.43
17607;BME280;69222;52.242;20.980;2023-07-08T01:50:27;100908.72;;;19.60;48.18
17607;BME280;69222;52.242;20.980;2023-07-08T01:53:00;100913.88;;;19.62;47.99
17607;BME280;69222;52.242;20.980;2023-07-08T01:55:30;100907.91;;;19.58;48.10
17607;BME280;69222;52.242;20.980;2023-07-08T01:57:58;100902.91;;;19.52;48.11
17607;BME280;69222;52.242;20.980;2023-07-08T02:00:26;100902.28;;;19.44;48.16
17607;BME280;69222;52.242;20.980;2023-07-08T02:02:54;100902.44;;;19.39;48.82
17607;BME280;69222;52.242;20.980;2023-07-08T02:05:23;100905.13;;;19.38;48.89
17607;BME280;69222;52.242;20.980;2023-07-08T02:07:51;100899.00;;;19.39;48.96
17607;BME280;69222;52.242;20.980;2023-07-08T02:10:20;100903.41;;;19.37;48.63
17607;BME280;69222;52.242;20.980;2023-07-08T02:12:48;100894.72;;;19.36;48.98
17607;BME280;69222;52.242;20.980;2023-07-08T02:15:16;100885.09;;;19.37;49.04
17607;BME280;69222;52.242;20.980;2023-07-08T02:17:44;100895.56;;;19.37;49.13
17607;BME280;69222;52.242;20.980;2023-07-08T02:20:12;100892.25;;;19.31;49.18
17607;BME280;69222;52.242;20.980;2023-07-08T02:22:40;100894.97;;;19.28;49.43
17607;BME280;69222;52.242;20.980;2023-07-08T02:25:08;100894.22;;;19.25;49.49
17607;BME280;69222;52.242;20.980;2023-07-08T02:27:38;100902.13;;;19.23;49.74
17607;BME280;69222;52.242;20.980;2023-07-08T02:30:08;100890.88;;;19.21;49.74
17607;BME280;69222;52.242;20.980;2023-07-08T02:32:36;100897.06;;;19.19;49.90
17607;BME280;69222;52.242;20.980;2023-07-08T02:35:07;100897.09;;;19.17;50.00
17607;BME280;69222;52.242;20.980;2023-07-08T02:37:35;100896.19;;;19.18;50.15
17607;BME280;69222;52.242;20.980;2023-07-08T02:40:04;100891.78;;;19.20;49.98
17607;BME280;69222;52.242;20.980;2023-07-08T02:42:33;100892.69;;;19.19;50.02
17607;BME280;69222;52.242;20.980;2023-07-08T02:45:02;100887.47;;;19.19;50.09
17607;BME280;69222;52.242;20.980;2023-07-08T02:47:30;100885.75;;;19.18;50.11
17607;BME280;69222;52.242;20.980;2023-07-08T02:49:58;100889.16;;;19.20;50.20
17607;BME280;69222;52.242;20.980;2023-07-08T02:52:26;100889.09;;;19.22;50.08
17607;BME280;69222;52.242;20.980;2023-07-08T02:54:54;100887.38;;;19.22;50.26
17607;BME280;69222;52.242;20.980;2023-07-08T02:57:22;100891.78;;;19.20;50.02
17607;BME280;69222;52.242;20.980;2023-07-08T02:59:50;100898.00;;;19.16;50.40
17607;BME280;69222;52.242;20.980;2023-07-08T03:02:21;100899.13;;;19.09;50.62
17607;BME280;69222;52.242;20.980;2023-07-08T03:04:49;100897.50;;;19.05;50.80
17607;BME280;69222;52.242;20.980;2023-07-08T03:07:17;100899.13;;;19.09;50.72
17607;BME280;69222;52.242;20.980;2023-07-08T03:09:45;100902.41;;;19.14;50.67
17607;BME280;69222;52.242;20.980;2023-07-08T03:12:13;100896.34;;;19.14;50.80
17607;BME280;69222;52.242;20.980;2023-07-08T03:14:42;100906.63;;;19.18;50.74
17607;BME280;69222;52.242;20.980;2023-07-08T03:17:10;100900.44;;;19.22;50.83
17607;BME280;69222;52.242;20.980;2023-07-08T03:19:40;100902.16;;;19.22;50.75
17607;BME280;69222;52.242;20.980;2023-07-08T03:22:08;100905.59;;;19.24;50.92
17607;BME280;69222;52.242;20.980;2023-07-08T03:24:36;100906.53;;;19.21;50.82
17607;BME280;69222;52.242;20.980;2023-07-08T03:27:04;100900.47;;;19.21;51.06
17607;BME280;69222;52.242;20.980;2023-07-08T03:29:34;100909.13;;;19.23;51.22
17607;BME280;69222;52.242;20.980;2023-07-08T03:32:02;100911.66;;;19.24;50.97
17607;BME280;69222;52.242;20.980;2023-07-08T03:34:30;100909.88;;;19.26;51.11
17607;BME280;69222;52.242;20.980;2023-07-08T03:37:00;100911.56;;;19.27;51.38
17607;BME280;69222;52.242;20.980;2023-07-08T03:39:28;100907.19;;;19.28;51.44
17607;BME280;69222;52.242;20.980;2023-07-08T03:41:58;100909.66;;;19.33;51.48
17607;BME280;69222;52.242;20.980;2023-07-08T03:44:26;100906.00;;;19.37;51.37
17607;BME280;69222;52.242;20.980;2023-07-08T03:46:54;100897.47;;;19.33;51.67
17607;BME280;69222;52.242;20.980;2023-07-08T03:49:23;100907.66;;;19.41;51.44
17607;BME280;69222;52.242;20.980;2023-07-08T03:51:52;100904.97;;;19.42;51.27
17607;BME280;69222;52.242;20.980;2023-07-08T03:54:24;100905.72;;;19.46;51.50
17607;BME280;69222;52.242;20.980;2023-07-08T03:56:52;100909.16;;;19.48;51.38
17607;BME280;69222;52.242;20.980;2023-07-08T03:59:21;100900.28;;;19.52;51.35
17607;BME280;69222;52.242;20.980;2023-07-08T04:01:48;100908.91;;;19.54;51.40
17607;BME280;69222;52.242;20.980;2023-07-08T04:04:17;100907.03;;;19.58;51.56
17607;BME280;69222;52.242;20.980;2023-07-08T04:06:45;100909.50;;;19.64;51.28
17607;BME280;69222;52.242;20.980;2023-07-08T04:09:13;100910.13;;;19.70;51.18
17607;BME280;69222;52.242;20.980;2023-07-08T04:11:42;100904.63;;;19.78;51.15
17607;BME280;69222;52.242;20.980;2023-07-08T04:14:11;100899.13;;;19.86;50.63
17607;BME280;69222;52.242;20.980;2023-07-08T04:16:46;100893.63;;;19.92;50.14
17607;BME280;69222;52.242;20.980;2023-07-08T04:19:16;100896.84;;;20.00;48.30
17607;BME280;69222;52.242;20.980;2023-07-08T04:21:44;100898.19;;;20.10;46.85
17607;BME280;69222;52.242;20.980;2023-07-08T04:24:14;100894.22;;;20.23;45.90
17607;BME280;69222;52.242;20.980;2023-07-08T04:26:45;100897.16;;;20.38;44.77
17607;BME280;69222;52.242;20.980;2023-07-08T04:29:17;100894.81;;;20.54;44.30
17607;BME280;69222;52.242;20.980;2023-07-08T04:31:46;100890.75;;;20.68;43.29
17607;BME280;69222;52.242;20.980;2023-07-08T04:34:15;100891.22;;;20.78;42.29
17607;BME280;69222;52.242;20.980;2023-07-08T04:36:43;100889.94;;;20.88;42.25
17607;BME280;69222;52.242;20.980;2023-07-08T04:39:12;100883.41;;;20.98;42.25
17607;BME280;69222;52.242;20.980;2023-07-08T04:41:41;100890.81;;;21.09;41.96
17607;BME280;69222;52.242;20.980;2023-07-08T04:44:13;100879.84;;;21.21;41.93
17607;BME280;69222;52.242;20.980;2023-07-08T04:46:45;100884.66;;;21.31;41.42
17607;BME280;69222;52.242;20.980;2023-07-08T04:49:15;100887.84;;;21.39;41.19
17607;BME280;69222;52.242;20.980;2023-07-08T04:51:45;100882.41;;;21.43;40.96
17607;BME280;69222;52.242;20.980;2023-07-08T04:54:13;100887.47;;;21.48;40.68
17607;BME280;69222;52.242;20.980;2023-07-08T04:56:43;100881.16;;;21.52;40.50
17607;BME280;69222;52.242;20.980;2023-07-08T04:59:15;100891.09;;;21.64;40.66
17607;BME280;69222;52.242;20.980;2023-07-08T05:01:43;100878.44;;;21.74;40.16
17607;BME280;69222;52.242;20.980;2023-07-08T05:04:17;100885.69;;;21.88;40.14
17607;BME280;69222;52.242;20.980;2023-07-08T05:06:45;100882.50;;;22.00;39.61
17607;BME280;69222;52.242;20.980;2023-07-08T05:09:14;100883.00;;;22.08;38.98
17607;BME280;69222;52.242;20.980;2023-07-08T05:11:43;100887.03;;;22.17;39.13
17607;BME280;69222;52.242;20.980;2023-07-08T05:14:13;100885.75;;;22.26;38.64
17607;BME280;69222;52.242;20.980;2023-07-08T05:16:41;100889.69;;;22.34;38.46
17607;BME280;69222;52.242;20.980;2023-07-08T05:19:09;100891.97;;;22.42;38.19
17607;BME280;69222;52.242;20.980;2023-07-08T05:21:37;100882.72;;;22.52;38.04
17607;BME280;69222;52.242;20.980;2023-07-08T05:24:06;100883.00;;;22.65;37.87
17607;BME280;69222;52.242;20.980;2023-07-08T05:26:34;100882.50;;;22.76;37.60
17607;BME280;69222;52.242;20.980;2023-07-08T05:29:02;100883.56;;;22.89;37.17
17607;BME280;69222;52.242;20.980;2023-07-08T05:31:33;100883.47;;;23.09;37.04
17607;BME280;69222;52.242;20.980;2023-07-08T05:34:04;100879.13;;;23.26;36.56
17607;BME280;69222;52.242;20.980;2023-07-08T05:36:32;100886.47;;;23.36;36.25
17607;BME280;69222;52.242;20.980;2023-07-08T05:39:00;100886.69;;;23.49;36.34
17607;BME280;69222;52.242;20.980;2023-07-08T05:41:28;100889.31;;;23.67;36.06
17607;BME280;69222;52.242;20.980;2023-07-08T05:43:56;100881.22;;;23.87;35.44
17607;BME280;69222;52.242;20.980;2023-07-08T05:46:24;100889.06;;;24.04;34.95
17607;BME280;69222;52.242;20.980;2023-07-08T05:48:54;100882.75;;;24.23;34.48
17607;BME280;69222;52.242;20.980;2023-07-08T05:51:24;100882.44;;;24.45;34.09
17607;BME280;69222;52.242;20.980;2023-07-08T05:53:52;100875.84;;;24.53;33.23
17607;BME280;69222;52.242;20.980;2023-07-08T05:56:20;100876.06;;;24.65;32.91
17607;BME280;69222;52.242;20.980;2023-07-08T05:58:48;100878.59;;;24.82;33.11
17607;BME280;69222;52.242;20.980;2023-07-08T06:01:16;100869.41;;;25.03;32.93
17607;BME280;69222;52.242;20.980;2023-07-08T06:03:44;100867.63;;;25.20;32.25
17607;BME280;69222;52.242;20.980;2023-07-08T06:06:14;100871.03;;;25.36;31.63
17607;BME280;69222;52.242;20.980;2023-07-08T06:08:42;100863.53;;;25.44;31.60
17607;BME280;69222;52.242;20.980;2023-07-08T06:11:12;100857.84;;;25.50;30.90
17607;BME280;69222;52.242;20.980;2023-07-08T06:13:40;100862.00;;;25.69;30.59
17607;BME280;69222;52.242;20.980;2023-07-08T06:16:08;100860.25;;;25.84;30.01
17607;BME280;69222;52.242;20.980;2023-07-08T06:18:37;100869.41;;;25.92;29.46
17607;BME280;69222;52.242;20.980;2023-07-08T06:21:05;100868.34;;;25.95;28.93
17607;BME280;69222;52.242;20.980;2023-07-08T06:23:35;100855.50;;;26.03;29.05
17607;BME280;69222;52.242;20.980;2023-07-08T06:26:03;100859.44;;;26.10;28.83
17607;BME280;69222;52.242;20.980;2023-07-08T06:28:31;100858.72;;;26.08;29.05
17607;BME280;69222;52.242;20.980;2023-07-08T06:30:59;100861.25;;;26.10;29.22
17607;BME280;69222;52.242;20.980;2023-07-08T06:33:27;100856.53;;;26.15;29.12
17607;BME280;69222;52.242;20.980;2023-07-08T06:35:55;100861.78;;;26.29;29.23
17607;BME280;69222;52.242;20.980;2023-07-08T06:38:23;100853.63;;;26.46;29.13
17607;BME280;69222;52.242;20.980;2023-07-08T06:40:53;100855.06;;;26.65;29.16
17607;BME280;69222;52.242;20.980;2023-07-08T06:43:21;100857.03;;;26.88;29.32
17607;BME280;69222;52.242;20.980;2023-07-08T06:45:49;100853.34;;;27.04;28.60
17607;BME280;69222;52.242;20.980;2023-07-08T06:48:17;100859.31;;;27.20;28.05
17607;BME280;69222;52.242;20.980;2023-07-08T06:50:46;100849.06;;;27.28;27.96
17607;BME280;69222;52.242;20.980;2023-07-08T06:53:15;100858.28;;;27.23;27.21
17607;BME280;69222;52.242;20.980;2023-07-08T06:55:44;100852.13;;;27.22;27.39
17607;BME280;69222;52.242;20.980;2023-07-08T06:58:13;100853.22;;;27.32;26.96
17607;BME280;69222;52.242;20.980;2023-07-08T07:00:42;100849.78;;;27.43;27.06
17607;BME280;69222;52.242;20.980;2023-07-08T07:03:12;100853.19;;;27.58;26.55
17607;BME280;69222;52.242;20.980;2023-07-08T07:05:41;100841.44;;;27.62;26.26
17607;BME280;69222;52.242;20.980;2023-07-08T07:08:09;100842.16;;;27.64;26.44
17607;BME280;69222;52.242;20.980;2023-07-08T07:10:37;100830.84;;;27.75;26.10
17607;BME280;69222;52.242;20.980;2023-07-08T07:13:05;100843.63;;;27.93;25.91
17607;BME280;69222;52.242;20.980;2023-07-08T07:15:35;100842.00;;;28.04;25.55
17607;BME280;69222;52.242;20.980;2023-07-08T07:18:03;100834.28;;;28.01;25.28
17607;BME280;69222;52.242;20.980;2023-07-08T07:20:33;100835.28;;;27.74;25.61
17607;BME280;69222;52.242;20.980;2023-07-08T07:23:01;100835.19;;;27.50;25.99
17607;BME280;69222;52.242;20.980;2023-07-08T07:25:29;100839.22;;;27.43;25.82
17607;BME280;69222;52.242;20.980;2023-07-08T07:27:57;100836.88;;;27.38;25.99
17607;BME280;69222;52.242;20.980;2023-07-08T07:30:26;100834.13;;;27.27;26.00
17607;BME280;69222;52.242;20.980;2023-07-08T07:32:58;100834.03;;;27.16;25.86
17607;BME280;69222;52.242;20.980;2023-07-08T07:35:26;100834.78;;;27.18;25.74
17607;BME280;69222;52.242;20.980;2023-07-08T07:37:54;100828.50;;;28.68;25.74
17607;BME280;69222;52.242;20.980;2023-07-08T07:40:22;100818.81;;;31.62;21.36
17607;BME280;69222;52.242;20.980;2023-07-08T07:42:51;100809.78;;;34.66;18.27
17607;BME280;69222;52.242;20.980;2023-07-08T07:45:19;100815.06;;;37.19;15.22
17607;BME280;69222;52.242;20.980;2023-07-08T07:47:49;100806.75;;;38.76;13.66
17607;BME280;69222;52.242;20.980;2023-07-08T07:50:19;100808.00;;;38.88;13.45
17607;BME280;69222;52.242;20.980;2023-07-08T07:52:47;100819.59;;;38.28;13.65
17607;BME280;69222;52.242;20.980;2023-07-08T07:55:15;100819.47;;;37.99;13.81
17607;BME280;69222;52.242;20.980;2023-07-08T07:57:43;100818.66;;;36.87;14.51
17607;BME280;69222;52.242;20.980;2023-07-08T08:00:13;100826.69;;;35.71;15.90
17607;BME280;69222;52.242;20.980;2023-07-08T08:02:41;100822.41;;;34.56;16.59
17607;BME280;69222;52.242;20.980;2023-07-08T08:05:10;100821.19;;;33.22;18.09
17607;BME280;69222;52.242;20.980;2023-07-08T08:07:39;100821.63;;;32.20;19.13
17607;BME280;69222;52.242;20.980;2023-07-08T08:10:08;100827.03;;;31.49;20.06
17607;BME280;69222;52.242;20.980;2023-07-08T08:12:39;100817.34;;;30.76;20.57
17607;BME280;69222;52.242;20.980;2023-07-08T08:15:20;100819.75;;;29.92;21.60
17607;BME280;69222;52.242;20.980;2023-07-08T08:17:49;100820.59;;;29.36;22.20
17607;BME280;69222;52.242;20.980;2023-07-08T08:20:20;100818.88;;;29.02;23.20
17607;BME280;69222;52.242;20.980;2023-07-08T08:22:50;100822.81;;;28.61;23.41
17607;BME280;69222;52.242;20.980;2023-07-08T08:25:20;100825.28;;;28.40;23.62
17607;BME280;69222;52.242;20.980;2023-07-08T08:27:48;100826.75;;;28.31;23.29
17607;BME280;69222;52.242;20.980;2023-07-08T08:30:18;100831.81;;;28.34;23.43
17607;BME280;69222;52.242;20.980;2023-07-08T08:32:46;100832.03;;;28.44;23.41
17607;BME280;69222;52.242;20.980;2023-07-08T08:35:14;100826.91;;;28.54;23.63
17607;BME280;69222;52.242;20.980;2023-07-08T08:37:43;100821.03;;;28.61;23.74
17607;BME280;69222;52.242;20.980;2023-07-08T08:40:15;100828.09;;;28.61;24.03
17607;BME280;69222;52.242;20.980;2023-07-08T08:42:51;100818.88;;;28.42;23.83
17607;BME280;69222;52.242;20.980;2023-07-08T08:45:21;100823.78;;;28.36;24.39
17607;BME280;69222;52.242;20.980;2023-07-08T08:47:56;100830.66;;;28.38;24.26
17607;BME280;69222;52.242;20.980;2023-07-08T08:50:30;100827.78;;;28.41;23.86
17607;BME280;69222;52.242;20.980;2023-07-08T08:53:01;100826.50;;;28.34;23.96
17607;BME280;69222;52.242;20.980;2023-07-08T08:55:32;100820.53;;;28.20;24.38
17607;BME280;69222;52.242;20.980;2023-07-08T08:58:08;100807.91;;;28.23;24.51
17607;BME280;69222;52.242;20.980;2023-07-08T09:00:47;100810.91;;;28.42;24.12
17607;BME280;69222;52.242;20.980;2023-07-08T09:03:32;100821.28;;;28.70;23.70
17607;BME280;69222;52.242;20.980;2023-07-08T09:06:11;100829.38;;;28.44;23.68
17607;BME280;69222;52.242;20.980;2023-07-08T09:08:40;100817.09;;;28.43;24.10
17607;BME280;69222;52.242;20.980;2023-07-08T09:11:23;100824.75;;;28.59;24.00
17607;BME280;69222;52.242;20.980;2023-07-08T09:13:54;100816.03;;;28.57;23.69
17607;BME280;69222;52.242;20.980;2023-07-08T09:16:29;100812.72;;;28.66;23.91
17607;BME280;69222;52.242;20.980;2023-07-08T09:19:04;100825.00;;;28.67;23.91
17607;BME280;69222;52.242;20.980;2023-07-08T09:21:37;100826.19;;;28.63;24.12
17607;BME280;69222;52.242;20.980;2023-07-08T09:24:13;100819.25;;;28.73;23.96
17607;BME280;69222;52.242;20.980;2023-07-08T09:26:46;100814.91;;;28.72;23.13
17607;BME280;69222;52.242;20.980;2023-07-08T09:29:17;100822.97;;;28.71;23.36
17607;BME280;69222;52.242;20.980;2023-07-08T09:31:46;100822.91;;;28.83;23.49
17607;BME280;69222;52.242;20.980;2023-07-08T09:34:16;100822.66;;;28.98;23.23
17607;BME280;69222;52.242;20.980;2023-07-08T09:36:46;100816.75;;;28.94;23.28
17607;BME280;69222;52.242;20.980;2023-07-08T09:39:17;100819.03;;;28.76;23.82
17607;BME280;69222;52.242;20.980;2023-07-08T09:41:48;100821.03;;;28.37;24.58
17607;BME280;69222;52.242;20.980;2023-07-08T09:44:22;100819.81;;;28.17;24.73
17607;BME280;69222;52.242;20.980;2023-07-08T09:46:56;100809.88;;;28.08;24.46
17607;BME280;69222;52.242;20.980;2023-07-08T09:49:28;100805.81;;;28.15;24.63
17607;BME280;69222;52.242;20.980;2023-07-08T09:51:57;100817.00;;;28.32;23.98
17607;BME280;69222;52.242;20.980;2023-07-08T09:54:26;100805.53;;;28.31;24.36
17607;BME280;69222;52.242;20.980;2023-07-08T09:56:58;100799.88;;;28.49;24.04
17607;BME280;69222;52.242;20.980;2023-07-08T09:59:32;100805.47;;;28.68;23.93
17607;BME280;69222;52.242;20.980;2023-07-08T10:02:12;100809.00;;;28.45;24.16
17607;BME280;69222;52.242;20.980;2023-07-08T10:04:52;100808.25;;;28.18;24.58
17607;BME280;69222;52.242;20.980;2023-07-08T10:07:21;100820.97;;;27.89;24.53
17607;BME280;69222;52.242;20.980;2023-07-08T10:09:51;100811.44;;;27.74;24.55
17607;BME280;69222;52.242;20.980;2023-07-08T10:12:24;100809.13;;;27.82;24.46
17607;BME280;69222;52.242;20.980;2023-07-08T10:14:54;100805.53;;;28.31;24.07
17607;BME280;69222;52.242;20.980;2023-07-08T10:17:24;100800.72;;;30.19;22.08
17607;BME280;69222;52.242;20.980;2023-07-08T10:19:52;100792.75;;;32.64;19.57
17607;BME280;69222;52.242;20.980;2023-07-08T10:22:30;100791.34;;;34.81;17.31
17607;BME280;69222;52.242;20.980;2023-07-08T10:25:20;100789.16;;;35.79;16.20
17607;BME280;69222;52.242;20.980;2023-07-08T10:27:57;100791.31;;;36.50;16.04
17607;BME280;69222;52.242;20.980;2023-07-08T10:30:32;100785.91;;;36.01;15.38
17607;BME280;69222;52.242;20.980;2023-07-08T10:33:13;100787.63;;;35.34;15.81
17607;BME280;69222;52.242;20.980;2023-07-08T10:36:05;100787.56;;;36.02;15.76
17607;BME280;69222;52.242;20.980;2023-07-08T10:38:45;100775.72;;;37.42;14.81
17607;BME280;69222;52.242;20.980;2023-07-08T10:41:35;100768.22;;;38.76;13.27
17607;BME280;69222;52.242;20.980;2023-07-08T10:44:12;100757.09;;;38.94;13.60
17607;BME280;69222;52.242;20.980;2023-07-08T10:46:50;100771.81;;;37.76;13.89
17607;BME280;69222;52.242;20.980;2023-07-08T10:49:38;100776.22;;;37.30;14.58
17607;BME280;69222;52.242;20.980;2023-07-08T10:52:28;100773.16;;;37.02;14.36
17607;BME280;69222;52.242;20.980;2023-07-08T10:55:09;100763.31;;;35.27;15.82
17607;BME280;69222;52.242;20.980;2023-07-08T11:00:58;100774.19;;;31.45;20.05
17607;BME280;69222;52.242;20.980;2023-07-08T11:03:40;100776.75;;;30.42;21.85
17607;BME280;69222;52.242;20.980;2023-07-08T11:06:14;100760.09;;;31.33;21.24
17607;BME280;69222;52.242;20.980;2023-07-08T11:08:48;100762.13;;;32.10;19.71
17607;BME280;69222;52.242;20.980;2023-07-08T11:11:28;100767.09;;;31.74;19.93
17607;BME280;69222;52.242;20.980;2023-07-08T11:14:03;100761.50;;;30.86;21.05
17607;BME280;69222;52.242;20.980;2023-07-08T11:16:40;100761.72;;;30.20;22.06
17607;BME280;69222;52.242;20.980;2023-07-08T11:19:17;100759.53;;;29.70;22.46
17607;BME280;69222;52.242;20.980;2023-07-08T11:21:50;100755.66;;;29.52;22.90
17607;BME280;69222;52.242;20.980;2023-07-08T11:24:24;100753.88;;;30.07;22.19
17607;BME280;69222;52.242;20.980;2023-07-08T11:26:56;100754.50;;;31.06;22.00
17607;BME280;69222;52.242;20.980;2023-07-08T11:29:31;100735.88;;;32.64;20.24
17607;BME280;69222;52.242;20.980;2023-07-08T11:32:06;100736.41;;;34.15;18.22
17607;BME280;69222;52.242;20.980;2023-07-08T11:34:37;100743.91;;;34.99;16.48
17607;BME280;69222;52.242;20.980;2023-07-08T11:37:06;100738.97;;;35.13;16.49
17607;BME280;69222;52.242;20.980;2023-07-08T11:39:39;100734.78;;;34.40;16.85
17607;BME280;69222;52.242;20.980;2023-07-08T11:42:17;100733.38;;;33.37;17.39
17607;BME280;69222;52.242;20.980;2023-07-08T11:44:49;100738.97;;;32.20;19.04
17607;BME280;69222;52.242;20.980;2023-07-08T11:47:25;100746.09;;;31.41;20.52
17607;BME280;69222;52.242;20.980;2023-07-08T11:49:54;100739.81;;;31.42;20.60
17607;BME280;69222;52.242;20.980;2023-07-08T11:52:23;100742.81;;;31.77;20.19
17607;BME280;69222;52.242;20.980;2023-07-08T11:54:58;100733.50;;;32.12;19.61
17607;BME280;69222;52.242;20.980;2023-07-08T11:57:36;100733.47;;;32.32;19.41
17607;BME280;69222;52.242;20.980;2023-07-08T12:00:17;100730.53;;;32.35;19.62
17607;BME280;69222;52.242;20.980;2023-07-08T12:02:53;100728.84;;;31.95;20.19
17607;BME280;69222;52.242;20.980;2023-07-08T12:05:34;100730.59;;;31.65;20.54
17607;BME280;69222;52.242;20.980;2023-07-08T12:08:11;100717.72;;;31.61;21.00
17607;BME280;69222;52.242;20.980;2023-07-08T12:10:42;100737.69;;;31.36;20.60
17607;BME280;69222;52.242;20.980;2023-07-08T12:13:17;100722.75;;;31.23;20.51
17607;BME280;69222;52.242;20.980;2023-07-08T12:15:47;100717.78;;;31.09;20.62
17607;BME280;69222;52.242;20.980;2023-07-08T12:18:20;100721.16;;;31.11;20.62
17607;BME280;69222;52.242;20.980;2023-07-08T12:20:52;100713.34;;;30.89;20.99
17607;BME280;69222;52.242;20.980;2023-07-08T12:23:24;100724.06;;;30.56;21.26
17607;BME280;69222;52.242;20.980;2023-07-08T12:25:54;100716.06;;;30.03;22.12
17607;BME280;69222;52.242;20.980;2023-07-08T12:28:24;100715.28;;;29.92;22.58
17607;BME280;69222;52.242;20.980;2023-07-08T12:30:52;100714.50;;;30.01;22.66
17607;BME280;69222;52.242;20.980;2023-07-08T12:33:27;100712.31;;;30.17;21.78
17607;BME280;69222;52.242;20.980;2023-07-08T12:35:56;100706.34;;;30.25;22.15
17607;BME280;69222;52.242;20.980;2023-07-08T12:38:28;100707.94;;;30.16;21.86
17607;BME280;69222;52.242;20.980;2023-07-08T12:40:58;100710.00;;;30.13;22.36
17607;BME280;69222;52.242;20.980;2023-07-08T12:43:28;100700.31;;;30.23;22.30
17607;BME280;69222;52.242;20.980;2023-07-08T12:45:56;100699.22;;;30.46;22.10
17607;BME280;69222;52.242;20.980;2023-07-08T12:48:31;100694.00;;;30.66;20.74
17607;BME280;69222;52.242;20.980;2023-07-08T12:50:59;100687.75;;;30.46;20.62
17607;BME280;69222;52.242;20.980;2023-07-08T12:53:28;100687.69;;;30.36;21.29
17607;BME280;69222;52.242;20.980;2023-07-08T12:55:57;100687.88;;;30.23;21.90
17607;BME280;69222;52.242;20.980;2023-07-08T12:58:29;100707.47;;;30.11;22.49
17607;BME280;69222;52.242;20.980;2023-07-08T13:01:00;100693.47;;;30.09;21.90
17607;BME280;69222;52.242;20.980;2023-07-08T13:03:35;100682.28;;;30.26;22.14